Seattle, Washington
Current Conditions -  °F | °C
As of 7:53 PM on Friday 24 Oct 2014 (Local Time) from KBFI Reporting Station
Light Rain Light Rain  
Wind Chill: 57°   Ceiling: 6500
Heat Index: 57°   Visibility: 10mi
Dew Point: 48°   Wind: 3mph
Humidity: 72%   Direction: 360°N
Pressure: 29.86"   Gusts: NA
Location:  47.6°N, 122.32°W
Report Text: KBFI 250253Z 36003KT 10SM -RA BKN065 OVC080 14/09 A2986 RMK AO2 RAB37 SLP110 P0000 60000 T01390089 56012
Loading
Personal Weather Stations






























Interactive Weather Map
Tropical Storm Tracking
New forecast layout! Learn more

10-Day Weather Forecast

Advertisements
Track Severe Weather on mobile